FW7111 Weather Reports


Display with metric or nautical units.
time (UTC)temp
F
wind
direction
speed
MPH
gust
MPH
rain 1hr
in
rain 24hr
in
rain mn
in
humidity
%
barometer
mb
20210920014525 76 0.0 0.0 0.00 0.00 0.00 79 1020.3
20210920013525 76 0.0 0.0 0.00 0.00 0.00 78 1020.2
20210920013026 76 0.0 0.0 0.00 0.00 0.00 77 1020.0
20210920012525 76 0.0 0.0 0.00 0.00 0.00 77 1019.9
20210920012025 77 0.0 0.0 0.00 0.00 0.00 76 1019.8
20210920011526 77 0.0 0.0 0.00 0.00 0.00 76 1019.8
20210920011025 77 0.0 0.0 0.00 0.00 0.00 75 1019.7
20210920010525 77 0.0 0.0 0.00 0.00 0.00 75 1019.6
20210920005525 77 0.0 0.0 0.00 0.00 0.00 75 1019.6
20210920004525 78 0.0 0.0 0.00 0.00 0.00 73 1019.4
20210920004026 78 0.0 0.0 0.00 0.00 0.00 73 1019.2
20210920003525 78 0.0 0.0 0.00 0.00 0.00 72 1019.1
20210920003025 78 0.0 0.0 0.00 0.00 0.00 72 1018.9
20210920002027 78 0.0 0.0 0.00 0.00 0.00 71 1018.8
20210920001025 79 0.0 0.0 0.00 0.00 0.00 70 1018.6
20210920000525 79 0.0 0.0 0.00 0.00 0.00 70 1018.5
20210920000025 79 0.0 0.0 0.00 0.00 0.00 69 1018.6
20210919235025 79 0.0 0.0 0.00 0.00 0.00 69 1018.5
20210919234525 79 0.0 0.0 0.00 0.00 0.00 68 1018.3
20210919234026 79 0.0 0.0 0.00 0.00 0.00 68 1018.4
20210919233025 80 0.0 0.0 0.00 0.00 0.00 67 1018.3
20210919232026 80 0.0 0.0 0.00 0.00 0.00 66 1018.2
20210919231526 80 0.0 0.0 0.00 0.00 0.00 65 1018.1
20210919230525 81 0.0 0.0 0.00 0.00 0.00 65 1018.0
20210919230025 81 0.0 0.0 0.00 0.00 0.00 65 1017.9
20210919225528 81 0.0 0.0 0.00 0.00 0.00 64 1017.9
20210919225025 81 0.0 0.0 0.00 0.00 0.00 64 1017.8
20210919224525 81 0.0 0.0 0.00 0.00 0.00 65 1017.8
20210919224025 82 0.0 0.0 0.00 0.00 0.00 64 1017.8
20210919223526 82 0.0 0.0 0.00 0.00 0.00 64 1017.8
20210919222525 83 0.0 0.0 0.00 0.00 0.00 64 1017.8
20210919221525 83 0.0 0.0 0.00 0.00 0.00 62 1017.7
20210919221025 83 0.0 0.0 0.00 0.00 0.00 61 1017.6
20210919220526 83 0.0 0.0 0.00 0.00 0.00 62 1017.6
20210919220025 83 0.0 0.0 0.00 0.00 0.00 62 1017.4
20210919213525 85 0.0 0.0 0.00 0.00 0.00 57 1017.4
20210919212526 85 0.0 0.0 0.00 0.00 0.00 56 1017.5
20210919211525 86 0.0 0.0 0.00 0.00 0.00 57 1017.5
20210919211027 86 0.0 0.0 0.00 0.00 0.00 56 1017.6
20210919210525 86 0.0 0.0 0.00 0.00 0.00 55 1017.5
20210919205526 86 0.0 0.0 0.00 0.00 0.00 56 1017.6
20210919205026 86 0.0 0.0 0.00 0.00 0.00 56 1017.6
20210919204525 87 0.0 0.0 0.00 0.00 0.00 55 1017.7
20210919204025 86 0.0 0.0 0.00 0.00 0.00 54 1017.7
20210919203527 86 0.0 0.0 0.00 0.00 0.00 54 1017.7
20210919202525 86 0.0 0.0 0.00 0.00 0.00 55 1017.8
20210919202026 87 0.0 0.0 0.00 0.00 0.00 55 1017.9
20210919201525 87 0.0 0.0 0.00 0.00 0.00 52 1017.9
20210919200525 86 0.0 0.0 0.00 0.00 0.00 56 1018.1
20210919195026 88 0.0 0.0 0.00 0.00 0.00 51 1018.1
20210919194025 88 0.0 0.0 0.00 0.00 0.00 51 1018.2
20210919193026 87 0.0 0.0 0.00 0.00 0.00 52 1018.4
20210919191525 88 0.0 0.0 0.00 0.00 0.00 52 1018.5
20210919191025 88 0.0 0.0 0.00 0.00 0.00 52 1018.5
20210919190525 88 0.0 0.0 0.00 0.00 0.00 51 1018.6
20210919190025 87 0.0 0.0 0.00 0.00 0.00 52 1018.7
20210919185525 87 0.0 0.0 0.00 0.00 0.00 53 1018.8
20210919184526 88 0.0 0.0 0.00 0.00 0.00 52 1018.9
20210919183025 88 0.0 0.0 0.00 0.00 0.00 54 1019.0
20210919182525 87 0.0 0.0 0.00 0.00 0.00 56 1019.1
20210919181025 90 0.0 0.0 0.00 0.00 0.00 52 1019.2
20210919180525 89 0.0 0.0 0.00 0.00 0.00 52 1019.3
20210919180025 89 0.0 0.0 0.00 0.00 0.00 52 1019.3
20210919175525 89 0.0 0.0 0.00 0.00 0.00 54 1019.4
20210919174525 88 0.0 0.0 0.00 0.00 0.00 54 1019.6
20210919174025 87 0.0 0.0 0.00 0.00 0.00 54 1019.8
20210919173525 90 0.0 0.0 0.00 0.00 0.00 51 1019.8
20210919173025 90 0.0 0.0 0.00 0.00 0.00 49 1019.7
20210919172028 89 0.0 0.0 0.00 0.00 0.00 49 1019.8
20210919171525 89 0.0 0.0 0.00 0.00 0.00 52 1019.9
20210919171026 89 0.0 0.0 0.00 0.00 0.00 51 1020.0
20210919170525 90 0.0 0.0 0.00 0.00 0.00 51 1020.0
20210919170025 89 0.0 0.0 0.00 0.00 0.00 51 1020.1
20210919165525 91 0.0 0.0 0.00 0.00 0.00 48 1020.0
20210919165026 90 0.0 0.0 0.00 0.00 0.00 50 1020.1
20210919164525 90 0.0 0.0 0.00 0.00 0.00 48 1020.2
20210919164025 90 0.0 0.0 0.00 0.00 0.00 54 1020.4
20210919163525 88 0.0 0.0 0.00 0.00 0.00 55 1020.4
20210919163025 87 0.0 0.0 0.00 0.00 0.00 56 1020.4
20210919162527 88 0.0 0.0 0.00 0.00 0.00 56 1020.5
20210919161525 88 0.0 0.0 0.00 0.00 0.00 59 1020.6
20210919161026 87 0.0 0.0 0.00 0.00 0.00 58 1020.6
20210919160025 87 0.0 0.0 0.00 0.00 0.00 62 1020.7
20210919155525 85 0.0 0.0 0.00 0.00 0.00 65 1020.8
20210919155025 85 0.0 0.0 0.00 0.00 0.00 63 1020.8
20210919154526 85 0.0 0.0 0.00 0.00 0.00 64 1020.8
20210919154025 84 0.0 0.0 0.00 0.00 0.00 66 1020.9
20210919153525 84 0.0 0.0 0.00 0.00 0.00 66 1020.9
20210919152025 84 0.0 0.0 0.00 0.00 0.00 65 1021.0
20210919151526 83 0.0 0.0 0.00 0.00 0.00 68 1021.1
20210919151025 82 0.0 0.0 0.00 0.00 0.00 69 1021.2
20210919150025 81 0.0 0.0 0.00 0.00 0.00 72 1021.2
20210919145025 81 0.0 0.0 0.00 0.00 0.00 74 1021.3
20210919144025 81 0.0 0.0 0.00 0.00 0.00 74 1021.2
20210919142526 80 0.0 0.0 0.00 0.00 0.00 76 1021.2
20210919141525 80 0.0 0.0 0.00 0.00 0.00 76 1021.0
20210919141025 80 0.0 0.0 0.00 0.00 0.00 74 1020.8
20210919140525 81 0.0 0.0 0.00 0.00 0.00 75 1020.9
20210919140026 81 0.0 0.0 0.00 0.00 0.00 76 1021.2
20210919124025 71 0.0 0.0 0.00 0.00 0.00 93 1021.4
20210919123028 70 0.0 0.0 0.00 0.00 0.00 93 1021.3
20210919122525 70 0.0 0.0 0.00 0.00 0.00 94 1021.2
20210919120526 69 0.0 0.0 0.00 0.00 0.00 95 1021.3
20210919120025 69 0.0 0.0 0.00 0.00 0.00 95 1021.4
20210919115025 69 0.0 0.0 0.00 0.00 0.00 95 1021.3
20210919113525 68 0.0 0.0 0.00 0.00 0.00 95 1021.1
20210919113025 68 0.0 0.0 0.00 0.00 0.00 95 1021.0
20210919112025 68 0.0 0.0 0.00 0.00 0.00 95 1020.9
20210919111532 68 0.0 0.0 0.00 0.00 0.00 95 1021.0
20210919105025 68 0.0 0.0 0.00 0.00 0.00 95 1020.9
20210919104525 68 0.0 0.0 0.00 0.00 0.00 96 1020.8
20210919104025 68 0.0 0.0 0.00 0.00 0.00 96 1020.9
20210919103525 68 0.0 0.0 0.00 0.00 0.00 95 1020.8
20210919103026 68 0.0 0.0 0.00 0.00 0.00 95 1020.7
20210919095525 69 0.0 0.0 0.00 0.00 0.00 95 1020.6
20210919095026 69 0.0 0.0 0.00 0.00 0.00 95 1020.7
20210919092526 69 0.0 0.0 0.00 0.00 0.00 95 1020.6
20210919090525 69 0.0 0.0 0.00 0.00 0.00 95 1020.5
20210919085526 69 0.0 0.0 0.00 0.00 0.00 95 1020.3
20210919083525 69 0.0 0.0 0.00 0.00 0.00 94 1020.4
20210919083026 69 0.0 0.0 0.00 0.00 0.00 94 1020.3
20210919082025 70 0.0 0.0 0.00 0.00 0.00 94 1020.4
20210919081525 70 0.0 0.0 0.00 0.00 0.00 94 1020.3
20210919075525 70 0.0 0.0 0.00 0.00 0.00 94 1020.2
20210919075026 70 0.0 0.0 0.00 0.00 0.00 94 1020.3
20210919073025 70 0.0 0.0 0.00 0.00 0.00 94 1020.4
20210919072526 70 0.0 0.0 0.00 0.00 0.00 94 1020.5
20210919065025 70 0.0 0.0 0.00 0.00 0.00 93 1020.4
20210919064525 70 0.0 0.0 0.00 0.00 0.00 93 1020.3
20210919062525 71 0.0 0.0 0.00 0.00 0.00 93 1020.4
20210919062025 71 0.0 0.0 0.00 0.00 0.00 93 1020.3
20210919061525 71 0.0 0.0 0.00 0.00 0.00 93 1020.4
20210919055525 71 0.0 0.0 0.00 0.00 0.00 93 1020.5
20210919054025 71 0.0 0.0 0.00 0.00 0.00 93 1020.6
20210919052525 71 0.0 0.0 0.00 0.00 0.00 93 1020.5
20210919051025 71 0.0 0.0 0.00 0.00 0.00 93 1020.6
20210919050525 72 0.0 0.0 0.00 0.00 0.00 93 1020.5
20210919045525 72 0.0 0.0 0.00 0.00 0.00 92 1020.6
20210919042026 72 0.0 0.0 0.00 0.00 0.00 92 1020.7
20210919041525 72 0.0 0.0 0.00 0.00 0.00 92 1020.6
20210919041025 72 0.0 0.0 0.00 0.00 0.00 92 1020.7
20210919040525 72 0.0 0.0 0.00 0.00 0.00 92 1020.8
20210919040025 72 0.0 0.0 0.00 0.00 0.00 92 1020.8
20210919035525 73 0.0 0.0 0.00 0.00 0.00 92 1020.6
20210919035026 72 0.0 0.0 0.00 0.00 0.00 92 1020.6
20210919034525 72 0.0 0.0 0.00 0.00 0.00 92 1020.7
20210919034025 72 0.0 0.0 0.00 0.00 0.00 92 1020.6
20210919033025 73 0.0 0.0 0.00 0.00 0.00 91 1020.6
20210919032525 73 0.0 0.0 0.00 0.00 0.00 92 1020.6
20210919032025 73 0.0 0.0 0.00 0.00 0.00 91 1020.5
20210919030525 73 0.0 0.0 0.00 0.00 0.00 91 1020.4
20210919030026 73 0.0 0.0 0.00 0.00 0.00 91 1020.5
20210919025525 73 0.0 0.0 0.00 0.00 0.00 91 1020.4
20210919025025 73 0.0 0.0 0.00 0.00 0.00 91 1020.3
20210919024525 73 0.0 0.0 0.00 0.00 0.00 90 1020.2
20210919024025 73 0.0 0.0 0.00 0.00 0.00 90 1020.1
20210919023525 74 0.0 0.0 0.00 0.00 0.00 90 1020.0
20210919023026 74 0.0 0.0 0.00 0.00 0.00 90 1020.0
20210919022025 74 0.0 0.0 0.00 0.00 0.00 89 1020.0
20210919021025 74 0.0 0.0 0.00 0.00 0.00 89 1020.2
20210919020025 74 0.0 0.0 0.00 0.00 0.00 89 1020.0
20210919015025 74 0.0 0.0 0.00 0.00 0.00 89 1020.1